This is the latest recevied weather packets stored in our database for station/object W0SS-13. If no packets are shown the sender has not sent any weather packets the latest 10 day(s).
| Time | Temp. | Humidity | Pressure | Rain* | Wind** | Luminosity | Snow |
|---|---|---|---|---|---|---|---|
| 1777308834 | 22.22° C | 77% | 1002.5 hPa | 0 mm | - | 744 W/m² | - |
| 1777306101 | 20° C | 79% | 1002.1 hPa | 0 mm | - | 665 W/m² | - |
| 1777305792 | 20° C | 80% | 1002.2 hPa | 0 mm | - | 657 W/m² | - |
| 1777304877 | 18.89° C | 81% | 1002.3 hPa | 0 mm | - | 622 W/m² | - |
| 1777304272 | 18.89° C | 81% | 1002.3 hPa | 0 mm | - | 594 W/m² | - |
| 1777303969 | 18.33° C | 84% | 1002.4 hPa | 0 mm | - | 585 W/m² | - |
| 1777303666 | 17.78° C | 88% | 1002.2 hPa | 0 mm | - | 573 W/m² | - |
| 1777303061 | 16.67° C | 93% | 1002.4 hPa | 0 mm | - | 548 W/m² | - |
| 1777300640 | 16.11° C | 95% | 1002.2 hPa | 0 mm | - | 441 W/m² | - |
| 1777300337 | 16.11° C | 95% | 1002.3 hPa | 0 mm | - | 264 W/m² | - |
| 1777300034 | 15.56° C | 95% | 1002.4 hPa | 0 mm | - | 355 W/m² | - |
| 1777299731 | 16.67° C | 95% | 1002.4 hPa | 0 mm | - | 405 W/m² | - |
| 1777299428 | 16.11° C | 96% | 1002.1 hPa | 0 mm | - | 373 W/m² | - |
| 1777299126 | 15.56° C | 95% | 1002.3 hPa | 0 mm | - | 358 W/m² | - |
| 1777298216 | 15° C | 96% | 1002 hPa | 0 mm | - | 324 W/m² | - |
| 1777297305 | 15° C | 96% | 1002.4 hPa | 0 mm | - | 137 W/m² | - |
| 1777297002 | 15° C | 96% | 1002 hPa | 0 mm | - | 89 W/m² | - |
| 1777296698 | 15° C | 96% | 1002.6 hPa | 0 mm | - | 63 W/m² | - |
| 1777296080 | 14.44° C | 96% | 1001.7 hPa | 0 mm | - | 67 W/m² | - |
| 1777295777 | 15° C | 96% | 1002.4 hPa | 0 mm | - | 65 W/m² | - |
| 1777295475 | 14.44° C | 96% | 1002.3 hPa | 0 mm | - | 64 W/m² | - |
| 1777295172 | 14.44° C | 96% | 1002.7 hPa | 0 mm | - | 61 W/m² | - |
| 1777294870 | 14.44° C | 96% | 1002.2 hPa | 0 mm | - | 60 W/m² | - |
| 1777294569 | 14.44° C | 95% | 1002.5 hPa | 0 mm | - | 57 W/m² | - |
| 1777294266 | 14.44° C | 95% | 1002.7 hPa | 0 mm | - | 50 W/m² | - |
* Rain latest hour (hover to see other rain measurements)
** Current wind speed in m/s (hover to see current wind gust speed)